Edgard, LA (70049)

9:19 PM CST en Diciembre 20, 2014 (GMT -0600)
KA5ZCI River Forest | Change Station
CLOSE
Current Station
Estación meteorológica personal
Location: Laplace, LA
Altura: 6 ft
Estaciones meteorológicas cercanas

Alt 6 ft 30.06 °N, 90.45 °W | Updated 10 seconds ago

Nublado
Nublado
50.7 ° F
Sensación térmica 50.7 ° F
N
5.8
Viento Variable Viento desde ENE
Gusts 5.8 mph

Hoy
Alta -- | Baja -- ° F
--% Posibilidad de precipitaciones
Ayer
Alta -- | Baja -- ° F
Precip. -- pul
6:53 AM 5:06 PM
Creciente menguante, 1% visible
Presión 30.17 pul
Visibilidad 10.0 Millas
Nubes Nublado 1100 ft
Punto de rocío 48 ° F
Humedad 92%
Precipitaciones 0.02 pul
Espesor de la nieve No disponible.
UV 0 de una escala de 12
Polen 2.50 de una escala de 12
Calidad del aire No disponible.
Flu Activity No disponible.
METAR KMSY 210253Z 04010KT 10SM OVC011 11/08 A3016 RMK AO2 SLP215 T01110083 51009

More Conditions Fewer Conditions

Presión 30.17 pul
Visibilidad 10.0 Millas
Nubes Nublado 1100 ft
Punto de rocío 48 ° F
Humedad 92%
Precipitaciones 0.02 pul
Espesor de la nieve No disponible.
UV 0 de una escala de 12
Polen 2.50 de una escala de 12
Calidad del aire No disponible.
Flu Activity No disponible.
METAR KMSY 210253Z 04010KT 10SM OVC011 11/08 A3016 RMK AO2 SLP215 T01110083 51009

More Conditions Fewer Conditions

10-Day Weather Forecast

Almanac

Astronomía

Dec. 20, 2014 Salida Puesta
Hora real
Crepúsculo civil
Crepúsculo náutico
Crepúsculo astronómico
Luna
Horas de luz
Horas de luz
Tomorrow will be .
, % of the Moon is Illuminated

Extremos de hoy

Máximos del estado Bajos del estado

Community

WunderPhotos

Upload Photos

1,779,349 ¡fotos cargadas!

WunderBlogs® & News

Nearby

Calidad del aire

  Calidad del aire Índice AQ Contaminante
Not available.

Grosos de nieve

Estación Profundido Altura

Actividad de terremotos

Ciudad Distance Mag. Tiempo y dato
Magnitud mínima muestra es 2,5.

Temperaturas de aguas costeras

Lugar Temperatura

Estaciones meteorológicas cercanas